Time;durP1;ratioP1;P1;durP2;ratioP2;P2;SDS_P1;SDS_P2;PMS_P1;PMS_P2;Temp;Humidity;BMP_temperature;BMP_pressure;BME280_temperature;BME280_humidity;BME280_pressure;Samples;Min_cycle;Max_cycle;Signal;HPM_P1;HPM_P2
2021/04/04 00:02:14;;;;;;;18.17;3.03;;;6.00;74.50;;;;;;4912264;29;20035;-84
2021/04/04 00:04:40;;;;;;;18.90;2.60;;;6.00;74.50;;;;;;4912916;28;20024;-85
2021/04/04 00:07:05;;;;;;;10.77;2.22;;;6.00;74.50;;;;;;4913420;29;20023;-84
2021/04/04 00:09:31;;;;;;;17.52;2.40;;;6.00;74.50;;;;;;4914350;29;20032;-84
2021/04/04 00:11:56;;;;;;;17.98;2.10;;;6.00;74.50;;;;;;4912969;29;20498;-85
2021/04/04 00:14:22;;;;;;;15.30;2.03;;;6.00;74.50;;;;;;4913921;29;20130;-85
2021/04/04 00:16:47;;;;;;;19.25;2.47;;;5.90;74.60;;;;;;4915699;29;20032;-85
2021/04/04 00:19:13;;;;;;;13.43;1.70;;;5.90;74.70;;;;;;4915931;29;20035;-85
2021/04/04 00:21:39;;;;;;;12.90;1.85;;;5.90;74.80;;;;;;4916753;29;20543;-84
2021/04/04 00:24:06;;;;;;;10.98;1.77;;;5.90;74.90;;;;;;4912543;29;20078;-85
2021/04/04 00:26:32;;;;;;;13.57;2.42;;;6.00;75.00;;;;;;4914926;29;20024;-84
2021/04/04 00:28:57;;;;;;;21.20;2.10;;;5.90;75.00;;;;;;4916354;29;20035;-85
2021/04/04 00:31:23;;;;;;;15.02;2.40;;;6.00;75.10;;;;;;4915940;28;20024;-85
2021/04/04 00:33:48;;;;;;;11.52;1.67;;;5.90;75.10;;;;;;4915495;29;20021;-85
2021/04/04 00:36:14;;;;;;;15.98;2.40;;;5.90;75.10;;;;;;4916388;29;20032;-85
2021/04/04 00:38:39;;;;;;;13.75;1.40;;;6.00;75.30;;;;;;4916266;29;20025;-85
2021/04/04 00:41:05;;;;;;;22.63;3.00;;;6.00;75.30;;;;;;4916252;29;20036;-85
2021/04/04 00:43:30;;;;;;;9.07;1.25;;;5.90;75.30;;;;;;4916084;29;20096;-84
2021/04/04 00:45:56;;;;;;;15.13;1.83;;;5.90;75.30;;;;;;4916177;29;20032;-85
2021/04/04 00:48:22;;;;;;;18.92;2.80;;;5.90;75.30;;;;;;4916277;29;20115;-85
2021/04/04 00:50:47;;;;;;;12.38;1.60;;;5.90;75.30;;;;;;4903179;29;20032;-85
2021/04/04 00:53:13;;;;;;;16.17;1.50;;;6.00;75.30;;;;;;4896864;28;20029;-85
2021/04/04 00:55:38;;;;;;;18.48;1.77;;;5.90;75.30;;;;;;4912479;29;20047;-85
2021/04/04 00:58:04;;;;;;;14.40;1.85;;;5.90;75.10;;;;;;4896806;28;20025;-85
2021/04/04 01:00:32;;;;;;;12.98;1.85;;;5.90;75.20;;;;;;4898258;29;20057;-85
2021/04/04 01:02:57;;;;;;;14.43;1.38;;;5.90;75.30;;;;;;4897283;29;20481;-85
2021/04/04 01:05:37;;;;;;;15.60;1.95;;;5.90;75.30;;;;;;4907357;29;20032;-85
2021/04/04 01:08:05;;;;;;;11.05;2.03;;;6.00;75.30;;;;;;4915762;29;20036;-85
2021/04/04 01:10:32;;;;;;;18.20;2.45;;;5.90;75.30;;;;;;4915458;29;20477;-85
2021/04/04 01:13:05;;;;;;;18.38;1.95;;;6.00;75.50;;;;;;4915637;29;20050;-85
2021/04/04 01:15:34;;;;;;;14.68;1.50;;;6.00;75.50;;;;;;4915587;29;20036;-85
2021/04/04 01:18:22;;;;;;;13.30;1.33;;;6.00;75.50;;;;;;4911930;29;20036;-85
2021/04/04 01:20:52;;;;;;;18.00;1.90;;;6.00;75.60;;;;;;4903376;28;20083;-85
2021/04/04 01:23:58;;;;;;;16.27;1.67;;;6.00;75.60;;;;;;4896480;29;20025;-85
2021/04/04 01:26:45;;;;;;;8.07;2.25;;;6.00;75.60;;;;;;4912152;29;20083;-85
2021/04/04 01:29:13;;;;;;;13.65;1.40;;;6.00;75.70;;;;;;4915463;29;20038;-86
2021/04/04 01:31:41;;;;;;;9.90;1.48;;;6.00;75.70;;;;;;4915461;29;20024;-85
2021/04/04 01:34:07;;;;;;;11.75;1.20;;;6.00;75.80;;;;;;4913745;28;20094;-86
2021/04/04 01:36:36;;;;;;;15.55;2.03;;;6.00;75.70;;;;;;4897762;29;20029;-85
2021/04/04 01:39:07;;;;;;;16.63;1.67;;;6.00;75.80;;;;;;4897584;29;20512;-85
2021/04/04 01:41:36;;;;;;;13.77;1.48;;;6.00;75.90;;;;;;4912461;29;20045;-85
2021/04/04 01:44:06;;;;;;;15.05;1.88;;;6.00;75.90;;;;;;4911870;29;20029;-85
2021/04/04 01:46:32;;;;;;;13.25;2.03;;;6.00;75.90;;;;;;4912389;29;20044;-85
2021/04/04 01:48:58;;;;;;;16.83;1.85;;;6.00;76.00;;;;;;4898466;29;20120;-85
2021/04/04 01:51:25;;;;;;;11.95;1.08;;;6.00;76.10;;;;;;4914350;28;20059;-85
2021/04/04 01:53:52;;;;;;;10.15;1.20;;;6.00;76.10;;;;;;4914175;28;20043;-85
2021/04/04 01:56:19;;;;;;;16.00;1.75;;;6.00;76.20;;;;;;4915137;29;20039;-85
2021/04/04 01:58:45;;;;;;;14.20;2.83;;;6.00;76.20;;;;;;4914615;28;20055;-85
2021/04/04 02:01:12;;;;;;;15.15;2.50;;;6.00;76.30;;;;;;4914176;29;20067;-85
2021/04/04 02:03:40;;;;;;;13.02;2.58;;;6.00;76.40;;;;;;4916143;29;20021;-85
2021/04/04 02:06:05;;;;;;;12.13;1.52;;;6.00;76.50;;;;;;4899085;29;20087;-85
2021/04/04 02:08:32;;;;;;;14.30;1.42;;;6.00;76.60;;;;;;4896016;28;20032;-85
2021/04/04 02:11:00;;;;;;;13.50;1.35;;;6.00;76.70;;;;;;4906213;28;20534;-85
2021/04/04 02:13:27;;;;;;;14.73;1.40;;;6.00;76.70;;;;;;4914802;29;20032;-85
2021/04/04 02:16:01;;;;;;;12.82;1.20;;;6.00;76.80;;;;;;4914274;29;20395;-85
2021/04/04 02:18:26;;;;;;;15.93;1.85;;;6.00;76.90;;;;;;4915871;29;20447;-85
2021/04/04 02:20:54;;;;;;;12.85;1.63;;;6.00;77.00;;;;;;4929761;29;20071;-85
2021/04/04 02:23:20;;;;;;;9.00;1.65;;;6.00;77.10;;;;;;4914697;29;20051;-85
2021/04/04 02:25:46;;;;;;;14.63;1.42;;;6.00;77.20;;;;;;4915414;29;20086;-85
2021/04/04 02:28:12;;;;;;;14.13;1.85;;;6.00;77.30;;;;;;4915731;29;20032;-85
2021/04/04 02:30:38;;;;;;;15.90;2.33;;;6.00;77.40;;;;;;4930457;29;20500;-85
2021/04/04 02:33:11;;;;;;;9.38;1.60;;;6.00;77.40;;;;;;4907731;29;20036;-85
2021/04/04 02:35:40;;;;;;;14.45;1.80;;;6.00;77.60;;;;;;4913380;29;20036;-85
2021/04/04 02:38:13;;;;;;;17.63;1.83;;;6.00;77.50;;;;;;4914056;29;20036;-85
2021/04/04 02:40:40;;;;;;;10.15;1.40;;;6.00;77.60;;;;;;4914646;29;20032;-85
2021/04/04 02:43:08;;;;;;;15.30;1.92;;;6.00;77.70;;;;;;4915473;29;20488;-85
2021/04/04 02:45:36;;;;;;;12.25;1.77;;;6.00;77.80;;;;;;4915430;28;20028;-85
2021/04/04 02:48:08;;;;;;;11.20;1.65;;;6.10;77.90;;;;;;4914632;29;20028;-85
2021/04/04 02:50:36;;;;;;;7.50;0.82;;;6.10;77.90;;;;;;4909101;29;20040;-84
2021/04/04 02:53:03;;;;;;;13.80;1.40;;;6.00;78.00;;;;;;4915113;29;20036;-85
2021/04/04 02:55:33;;;;;;;14.38;1.30;;;6.00;78.00;;;;;;4910323;29;20048;-84
2021/04/04 02:58:02;;;;;;;11.57;1.55;;;6.00;78.00;;;;;;4911162;28;20116;-85
2021/04/04 03:00:28;;;;;;;8.40;1.20;;;6.00;78.10;;;;;;4911237;29;20471;-85
2021/04/04 03:02:55;;;;;;;17.85;1.80;;;6.10;78.20;;;;;;4911082;29;20036;-84
2021/04/04 03:05:25;;;;;;;9.90;1.02;;;6.10;78.20;;;;;;4896191;29;20024;-85
2021/04/04 03:07:53;;;;;;;15.13;1.38;;;6.10;78.20;;;;;;4911557;28;20102;-85
2021/04/04 03:10:18;;;;;;;12.90;1.35;;;6.10;78.30;;;;;;4913790;28;20036;-85
2021/04/04 03:12:47;;;;;;;12.90;1.52;;;6.00;78.40;;;;;;4914224;29;20499;-85
2021/04/04 03:15:15;;;;;;;10.25;1.23;;;6.10;78.50;;;;;;4913992;29;20036;-84
2021/04/04 03:17:43;;;;;;;17.88;2.67;;;6.00;78.60;;;;;;4914172;29;20056;-85
2021/04/04 03:20:11;;;;;;;16.75;1.65;;;6.10;78.70;;;;;;4907420;29;20043;-85
2021/04/04 03:22:37;;;;;;;19.00;1.83;;;6.10;78.90;;;;;;4908411;28;20059;-85
2021/04/04 03:25:06;;;;;;;13.60;1.48;;;6.10;79.00;;;;;;4913175;29;20035;-85
2021/04/04 03:27:35;;;;;;;12.52;1.58;;;6.10;79.00;;;;;;4913828;29;20033;-85
2021/04/04 03:30:01;;;;;;;9.07;1.38;;;6.10;79.10;;;;;;4913720;29;20028;-85
2021/04/04 03:32:27;;;;;;;18.00;1.65;;;6.10;79.20;;;;;;4913810;29;20051;-85
2021/04/04 03:34:54;;;;;;;16.40;1.58;;;6.10;79.30;;;;;;4910927;29;20078;-85
2021/04/04 03:37:20;;;;;;;21.90;2.60;;;6.10;79.40;;;;;;4894926;29;20508;-85
2021/04/04 03:39:46;;;;;;;14.02;2.00;;;6.10;79.70;;;;;;4894822;29;20455;-85
2021/04/04 03:42:12;;;;;;;16.98;1.45;;;6.10;79.90;;;;;;4895052;29;20025;-84
2021/04/04 03:44:40;;;;;;;13.15;2.45;;;6.10;79.80;;;;;;4894969;29;20059;-84
2021/04/04 03:47:06;;;;;;;12.95;1.75;;;6.10;79.80;;;;;;4894832;29;20435;-84
2021/04/04 03:49:33;;;;;;;17.25;1.77;;;6.10;79.90;;;;;;4898918;29;20037;-85
2021/04/04 03:52:00;;;;;;;12.15;1.95;;;6.10;79.80;;;;;;4905462;28;20032;-85
2021/04/04 03:54:26;;;;;;;12.10;1.77;;;6.10;79.80;;;;;;4913556;29;20492;-85
2021/04/04 03:56:54;;;;;;;15.52;1.90;;;6.10;79.80;;;;;;4912948;29;20469;-85
2021/04/04 03:59:22;;;;;;;13.18;1.63;;;6.10;79.70;;;;;;4898164;28;20078;-85
2021/04/04 04:01:50;;;;;;;13.30;2.08;;;6.10;79.70;;;;;;4914371;29;20032;-85
2021/04/04 04:04:16;;;;;;;16.15;1.45;;;6.10;79.70;;;;;;4914649;29;20441;-85
2021/04/04 04:06:46;;;;;;;13.90;2.60;;;6.10;79.60;;;;;;4912514;28;20040;-84
2021/04/04 04:09:14;;;;;;;15.13;1.90;;;6.10;79.80;;;;;;4913531;29;20071;-85
2021/04/04 04:11:47;;;;;;;15.30;2.88;;;6.10;79.70;;;;;;4913303;29;20562;-85
2021/04/04 04:14:19;;;;;;;17.58;2.20;;;6.10;79.80;;;;;;4912202;29;20037;-85
2021/04/04 04:16:45;;;;;;;14.25;2.72;;;6.10;79.90;;;;;;4914234;29;20025;-84
2021/04/04 04:19:11;;;;;;;15.18;1.73;;;6.10;79.80;;;;;;4914441;29;20044;-85
2021/04/04 04:21:39;;;;;;;15.23;1.88;;;6.10;79.80;;;;;;4911125;29;20023;-85
2021/04/04 04:24:09;;;;;;;6.10;1.42;;;6.10;79.80;;;;;;4913026;29;20120;-84
2021/04/04 04:26:35;;;;;;;16.10;1.55;;;6.10;79.80;;;;;;4908758;29;20401;-85
2021/04/04 04:29:02;;;;;;;10.38;1.35;;;6.00;79.70;;;;;;4895271;29;20121;-85
2021/04/04 04:31:34;;;;;;;10.13;1.30;;;6.10;79.70;;;;;;4894232;29;20060;-85
2021/04/04 04:34:01;;;;;;;9.85;1.10;;;6.00;79.60;;;;;;4908380;29;20043;-84
2021/04/04 04:36:29;;;;;;;11.07;1.40;;;6.10;79.60;;;;;;4909933;29;20039;-85
2021/04/04 04:38:56;;;;;;;12.85;0.90;;;6.00;79.50;;;;;;4915512;29;20184;-84
2021/04/04 04:41:23;;;;;;;9.45;1.35;;;6.00;79.50;;;;;;4912956;29;20119;-85
2021/04/04 04:43:55;;;;;;;10.98;0.93;;;6.00;79.40;;;;;;4912577;29;20078;-85
2021/04/04 04:46:21;;;;;;;12.75;1.25;;;6.00;79.50;;;;;;4913007;29;20021;-85
2021/04/04 04:48:46;;;;;;;17.05;1.38;;;6.00;79.60;;;;;;4913724;29;20037;-85
2021/04/04 04:51:13;;;;;;;12.93;1.00;;;6.00;79.60;;;;;;4912366;29;20071;-84
2021/04/04 04:53:39;;;;;;;13.18;1.15;;;6.00;79.60;;;;;;4913026;29;20036;-85
2021/04/04 04:56:05;;;;;;;8.98;0.88;;;6.00;79.70;;;;;;4908858;29;20032;-85
2021/04/04 04:58:31;;;;;;;10.30;1.20;;;6.00;80.30;;;;;;4893549;29;20067;-85
2021/04/04 05:01:00;;;;;;;9.88;1.05;;;6.00;79.70;;;;;;4899115;29;20029;-85
2021/04/04 05:03:26;;;;;;;15.32;1.45;;;6.00;79.80;;;;;;4915773;29;20037;-85
2021/04/04 05:05:52;;;;;;;17.50;3.13;;;6.00;79.80;;;;;;4915792;29;20103;-85
2021/04/04 05:08:19;;;;;;;14.00;1.15;;;6.00;79.90;;;;;;4915009;29;20131;-85
2021/04/04 05:10:46;;;;;;;12.93;1.98;;;6.00;79.90;;;;;;4915980;29;20032;-85
2021/04/04 05:13:12;;;;;;;8.98;1.27;;;6.00;80.00;;;;;;4915664;29;20051;-84
2021/04/04 05:15:40;;;;;;;12.60;1.30;;;6.00;80.00;;;;;;4915492;29;20040;-85
2021/04/04 05:18:06;;;;;;;23.60;1.80;;;6.00;80.10;;;;;;4914740;29;20088;-85
2021/04/04 05:20:33;;;;;;;11.73;1.40;;;6.00;80.10;;;;;;4913577;28;20036;-85
2021/04/04 05:22:59;;;;;;;9.68;1.02;;;6.00;80.30;;;;;;4914997;28;20039;-85
2021/04/04 05:25:25;;;;;;;10.23;0.93;;;6.00;80.30;;;;;;4914415;29;20430;-85
2021/04/04 05:27:51;;;;;;;11.23;1.35;;;6.00;80.40;;;;;;4915545;29;20058;-84
2021/04/04 05:30:17;;;;;;;15.90;1.23;;;6.00;80.50;;;;;;4915509;29;20105;-85
2021/04/04 05:32:47;;;;;;;17.40;2.17;;;6.00;80.60;;;;;;4915599;29;20028;-85
2021/04/04 05:35:18;;;;;;;9.40;0.93;;;6.00;80.70;;;;;;4915538;29;20037;-85
2021/04/04 05:37:45;;;;;;;12.55;1.25;;;6.00;80.80;;;;;;4914550;29;20032;-85
2021/04/04 05:40:25;;;;;;;8.73;1.38;;;6.00;80.90;;;;;;4915191;29;20052;-85
2021/04/04 05:42:56;;;;;;;9.05;2.15;;;6.00;80.90;;;;;;4915199;29;20024;-85
2021/04/04 05:45:35;;;;;;;11.93;1.33;;;6.00;81.00;;;;;;4915218;29;20032;-85
2021/04/04 05:48:25;;;;;;;8.68;0.88;;;6.00;81.00;;;;;;4915349;29;20166;-85
2021/04/04 05:51:18;;;;;;;13.00;1.00;;;6.10;81.00;;;;;;4900943;29;20497;-85
2021/04/04 05:53:46;;;;;;;;;;;6.10;81.00;;;;;;4909222;28;20032;-85
2021/04/04 05:56:20;;;;;;;10.10;1.05;;;6.10;80.90;;;;;;4912904;29;20034;-85
2021/04/04 05:58:51;;;;;;;9.60;1.15;;;6.10;80.90;;;;;;4896025;28;20052;-85
2021/04/04 06:01:25;;;;;;;10.63;1.63;;;6.10;80.80;;;;;;4897428;28;20028;-85
2021/04/04 06:04:40;;;;;;;5.43;1.15;;;6.10;80.70;;;;;;4897232;29;20036;-85
2021/04/04 06:07:21;;;;;;;8.55;0.75;;;6.10;80.70;;;;;;4898181;29;20136;-85
2021/04/04 06:10:01;;;;;;;9.82;1.10;;;6.10;80.60;;;;;;4895871;28;20028;-85
2021/04/04 06:12:51;;;;;;;15.90;3.40;;;6.20;80.60;;;;;;4907684;28;20051;-85
2021/04/04 06:15:25;;;;;;;12.05;0.90;;;6.20;80.50;;;;;;4897044;29;20405;-85
2021/04/04 06:18:28;;;;;;;13.73;0.90;;;6.20;80.40;;;;;;4917388;29;20115;-85
2021/04/04 06:21:08;;;;;;;17.15;0.70;;;6.20;80.30;;;;;;4911614;29;20115;-86
2021/04/04 06:23:49;;;;;;;6.00;0.65;;;6.20;80.30;;;;;;4911000;28;20107;-85
2021/04/04 06:26:55;;;;;;;11.57;0.90;;;6.20;80.20;;;;;;4907480;29;20401;-85
2021/04/04 06:29:42;;;;;;;14.35;1.50;;;6.20;80.20;;;;;;4901798;28;20036;-86
2021/04/04 06:32:16;;;;;;;9.55;0.80;;;6.20;80.20;;;;;;4909157;28;20063;-84
2021/04/04 06:34:53;;;;;;;13.80;1.92;;;6.30;80.20;;;;;;4895544;29;20044;-83
2021/04/04 06:37:43;;;;;;;7.25;0.98;;;6.30;80.20;;;;;;4895635;29;20039;-84
2021/04/04 06:40:27;;;;;;;8.32;0.85;;;6.30;80.10;;;;;;4895677;28;20508;-84
2021/04/04 06:43:04;;;;;;;11.68;0.93;;;6.30;80.00;;;;;;4904573;28;20060;-84
2021/04/04 06:45:58;;;;;;;6.63;1.35;;;6.30;80.00;;;;;;4914494;29;20028;-84
2021/04/04 06:48:52;;;;;;;13.32;1.17;;;6.40;80.20;;;;;;4914335;29;20035;-84
2021/04/04 06:51:43;;;;;;;13.10;0.95;;;6.40;80.10;;;;;;4914089;29;20037;-84
2021/04/04 06:54:54;;;;;;;10.43;0.60;;;6.40;80.10;;;;;;4912510;29;20440;-84
2021/04/04 06:57:38;;;;;;;6.20;0.80;;;6.40;80.20;;;;;;4902037;29;20055;-84
2021/04/04 07:00:13;;;;;;;7.10;1.00;;;6.40;80.30;;;;;;4912292;28;20052;-84
2021/04/04 07:03:06;;;;;;;12.60;1.58;;;6.40;80.50;;;;;;4914279;29;20067;-84
2021/04/04 07:05:40;;;;;;;6.35;0.90;;;6.40;80.50;;;;;;4910580;28;20086;-84
2021/04/04 07:08:24;;;;;;;15.98;2.10;;;6.40;80.60;;;;;;4913856;29;20050;-84
2021/04/04 07:10:50;;;;;;;8.68;1.10;;;6.40;80.90;;;;;;4913251;29;20028;-84
2021/04/04 07:14:03;;;;;;;7.57;0.85;;;6.40;81.00;;;;;;4914937;29;20035;-85
2021/04/04 07:16:54;;;;;;;8.88;0.93;;;6.40;81.10;;;;;;4911458;28;20040;-85
2021/04/04 07:19:58;;;;;;;11.02;0.80;;;6.40;81.30;;;;;;4911510;29;20407;-84
2021/04/04 07:22:49;;;;;;;7.20;0.77;;;6.40;81.70;;;;;;4911829;28;20115;-85
2021/04/04 07:25:28;;;;;;;8.38;0.90;;;6.40;81.90;;;;;;4908656;28;20369;-84
2021/04/04 07:28:30;;;;;;;10.43;1.23;;;6.40;82.10;;;;;;4913965;29;20035;-84
2021/04/04 07:31:02;;;;;;;11.63;1.08;;;6.40;82.10;;;;;;4913461;29;20043;-86
2021/04/04 07:33:27;;;;;;;10.73;1.20;;;6.50;82.00;;;;;;4914647;29;20039;-84
2021/04/04 07:36:31;;;;;;;10.45;1.25;;;6.50;81.90;;;;;;4913677;29;20044;-84
2021/04/04 07:39:04;;;;;;;9.43;1.02;;;6.50;81.80;;;;;;4915380;28;20040;-84
2021/04/04 07:41:36;;;;;;;6.75;1.00;;;6.60;81.80;;;;;;4895712;29;20036;-84
2021/04/04 07:44:28;;;;;;;10.88;1.23;;;6.60;81.80;;;;;;4899780;28;20029;-84
2021/04/04 07:46:54;;;;;;;13.50;1.38;;;6.60;81.60;;;;;;4914577;29;20029;-84
2021/04/04 07:49:25;;;;;;;7.45;0.80;;;6.60;81.30;;;;;;4904924;29;20036;-84
2021/04/04 07:51:57;;;;;;;9.32;1.27;;;6.60;81.30;;;;;;4896363;28;20611;-84
2021/04/04 07:54:56;;;;;;;9.55;0.82;;;6.60;80.90;;;;;;4911474;29;20040;-84
2021/04/04 07:57:50;;;;;;;8.43;0.90;;;6.70;81.00;;;;;;4876395;28;20032;-85
2021/04/04 08:00:16;;;;;;;9.20;1.02;;;6.70;80.60;;;;;;4893867;29;20076;-85
2021/04/04 08:02:54;;;;;;;7.93;1.50;;;6.70;80.40;;;;;;4894669;29;20039;-85
2021/04/04 08:05:25;;;;;;;4.35;1.08;;;6.80;80.50;;;;;;4904940;29;20044;-86
2021/04/04 08:08:01;;;;;;;6.90;2.28;;;6.80;79.70;;;;;;4913476;29;20396;-85
2021/04/04 08:10:33;;;;;;;8.00;0.90;;;6.80;80.00;;;;;;4913518;29;20388;-85
2021/04/04 08:13:21;;;;;;;6.23;0.70;;;6.90;80.00;;;;;;4911283;28;20673;-85
2021/04/04 08:16:05;;;;;;;7.13;0.80;;;7.00;79.80;;;;;;4977307;28;20062;-85
2021/04/04 08:18:31;;;;;;;6.43;0.70;;;7.00;79.80;;;;;;4994040;28;20033;-85
2021/04/04 08:21:01;;;;;;;4.32;0.70;;;7.00;79.60;;;;;;4912115;29;20032;-85
2021/04/04 08:23:39;;;;;;;7.10;0.80;;;7.00;79.50;;;;;;4911889;28;20071;-84
2021/04/04 08:26:18;;;;;;;4.65;0.70;;;7.10;79.50;;;;;;4913055;28;20031;-84
2021/04/04 08:29:16;;;;;;;7.38;1.05;;;7.10;79.20;;;;;;4938219;28;20036;-84
2021/04/04 08:31:48;;;;;;;4.80;0.90;;;7.00;78.60;;;;;;4897430;29;20044;-85
2021/04/04 08:34:20;;;;;;;6.22;0.77;;;7.00;78.90;;;;;;4912867;29;20028;-86
2021/04/04 08:36:58;;;;;;;5.95;0.93;;;7.00;79.10;;;;;;4915878;29;20039;-86
2021/04/04 08:39:30;;;;;;;9.60;1.17;;;7.00;79.00;;;;;;4916395;29;20055;-85
2021/04/04 08:41:59;;;;;;;6.45;0.90;;;7.00;79.30;;;;;;4915228;29;20127;-85
2021/04/04 08:44:42;;;;;;;9.82;1.40;;;6.90;79.60;;;;;;4915417;28;20036;-84
2021/04/04 08:47:17;;;;;;;6.63;1.90;;;7.00;79.90;;;;;;4916169;29;20436;-85
2021/04/04 08:49:44;;;;;;;8.05;1.15;;;7.00;80.10;;;;;;4916126;29;20035;-84
2021/04/04 08:52:17;;;;;;;3.65;0.80;;;7.00;80.20;;;;;;4916094;29;20048;-86
2021/04/04 08:54:50;;;;;;;8.50;1.08;;;7.00;80.30;;;;;;4931305;29;20385;-86
2021/04/04 08:57:21;;;;;;;7.75;0.85;;;7.00;80.00;;;;;;4914137;29;20054;-86
2021/04/04 08:59:51;;;;;;;7.95;0.95;;;7.10;79.80;;;;;;4915711;28;20492;-86
2021/04/04 09:02:18;;;;;;;11.77;1.10;;;7.20;80.00;;;;;;4915914;29;20064;-86
2021/04/04 09:04:44;;;;;;;6.30;0.95;;;7.20;79.80;;;;;;4916037;29;20028;-85
2021/04/04 09:07:11;;;;;;;4.18;0.70;;;7.20;79.70;;;;;;4914930;29;20027;-84
2021/04/04 09:09:44;;;;;;;5.07;0.70;;;7.20;79.40;;;;;;4915860;29;20074;-85
2021/04/04 09:12:11;;;;;;;7.57;1.15;;;7.30;78.60;;;;;;4915660;29;20031;-83
2021/04/04 09:14:42;;;;;;;4.55;0.88;;;7.20;78.40;;;;;;4915483;29;20396;-84
2021/04/04 09:17:15;;;;;;;7.28;0.82;;;7.20;78.80;;;;;;4911924;29;20120;-84
2021/04/04 09:19:44;;;;;;;3.33;0.70;;;7.20;78.50;;;;;;4896840;29;20036;-84
2021/04/04 09:22:20;;;;;;;5.45;0.70;;;7.20;78.50;;;;;;4903777;29;20115;-84
2021/04/04 09:24:51;;;;;;;5.72;1.00;;;7.20;78.10;;;;;;4914906;29;20036;-84
2021/04/04 09:27:18;;;;;;;3.08;0.60;;;7.10;77.70;;;;;;4914599;29;20497;-84
2021/04/04 09:29:48;;;;;;;4.13;0.88;;;7.20;78.30;;;;;;4916599;29;20024;-84
2021/04/04 09:32:25;;;;;;;4.20;0.70;;;7.20;77.40;;;;;;4916488;29;20109;-83
2021/04/04 09:34:51;;;;;;;3.30;0.70;;;7.30;76.80;;;;;;4916838;29;20047;-83
2021/04/04 09:37:26;;;;;;;6.63;1.38;;;7.40;76.80;;;;;;4916522;29;20024;-84
2021/04/04 09:39:52;;;;;;;3.65;0.75;;;7.50;76.40;;;;;;4915487;29;20562;-85
2021/04/04 09:42:19;;;;;;;8.18;1.20;;;7.60;75.80;;;;;;4914445;29;20032;-84
2021/04/04 09:44:46;;;;;;;5.05;1.20;;;7.60;75.10;;;;;;4910321;29;20033;-84
2021/04/04 09:47:11;;;;;;;9.02;1.30;;;7.50;74.60;;;;;;4895433;29;20021;-85
2021/04/04 09:49:42;;;;;;;6.43;1.45;;;7.50;74.80;;;;;;4897249;29;20485;-85
2021/04/04 09:52:28;;;;;;;3.97;1.42;;;7.60;75.00;;;;;;4912068;29;20025;-85
2021/04/04 09:54:58;;;;;;;7.25;1.25;;;7.60;74.70;;;;;;4914321;29;20045;-84
2021/04/04 09:57:24;;;;;;;5.53;1.63;;;7.60;74.60;;;;;;4906854;28;20028;-85
2021/04/04 09:59:50;;;;;;;9.93;1.73;;;7.60;74.90;;;;;;4916065;28;20531;-85
2021/04/04 10:02:35;;;;;;;9.63;2.00;;;7.60;74.70;;;;;;4915177;29;20484;-85
2021/04/04 10:05:03;;;;;;;7.25;2.13;;;7.70;75.60;;;;;;4915079;29;20094;-85
2021/04/04 10:07:30;;;;;;;8.15;3.13;;;7.60;74.60;;;;;;4914819;29;20028;-84
2021/04/04 10:09:56;;;;;;;8.43;2.10;;;7.70;74.30;;;;;;4914529;29;20523;-85
2021/04/04 10:12:22;;;;;;;11.38;2.70;;;7.70;74.00;;;;;;4915211;28;20039;-85
2021/04/04 10:15:02;;;;;;;6.80;2.60;;;7.60;74.10;;;;;;4914753;29;20119;-85
2021/04/04 10:17:28;;;;;;;5.05;1.90;;;7.60;74.30;;;;;;4913848;29;20563;-86
2021/04/04 10:19:55;;;;;;;13.13;3.38;;;7.60;74.40;;;;;;4915897;29;20071;-85
2021/04/04 10:22:21;;;;;;;10.02;2.80;;;7.60;73.90;;;;;;4914902;28;20028;-86
2021/04/04 10:24:47;;;;;;;8.75;2.85;;;7.60;73.90;;;;;;4914923;29;20035;-86
2021/04/04 10:27:28;;;;;;;8.55;3.20;;;7.70;74.20;;;;;;4913665;29;20035;-86
2021/04/04 10:30:14;;;;;;;10.00;3.70;;;7.70;74.30;;;;;;4915206;29;20028;-86
2021/04/04 10:32:44;;;;;;;10.05;3.30;;;7.90;74.10;;;;;;4913479;29;20028;-85
2021/04/04 10:35:11;;;;;;;9.90;4.15;;;7.90;73.80;;;;;;4914266;29;20120;-85
2021/04/04 10:37:38;;;;;;;9.45;3.63;;;7.90;73.80;;;;;;4914453;29;20048;-85
2021/04/04 10:40:10;;;;;;;11.80;4.30;;;7.80;74.00;;;;;;4912429;29;20024;-85
2021/04/04 10:42:37;;;;;;;10.85;4.00;;;7.80;73.90;;;;;;4977595;28;20037;-85
2021/04/04 10:45:17;;;;;;;9.70;4.60;;;7.80;74.30;;;;;;4895495;28;20086;-84
2021/04/04 10:47:44;;;;;;;7.63;3.72;;;7.70;74.20;;;;;;4905100;28;20043;-85
2021/04/04 10:50:13;;;;;;;8.45;4.40;;;7.70;74.60;;;;;;4914481;29;20089;-85
2021/04/04 10:52:44;;;;;;;11.23;4.13;;;7.70;74.90;;;;;;4914546;29;20040;-85
2021/04/04 10:55:11;;;;;;;8.95;4.85;;;7.70;75.00;;;;;;4913395;29;20134;-84
2021/04/04 10:57:38;;;;;;;11.82;5.63;;;7.70;74.70;;;;;;4914568;29;20480;-85
2021/04/04 11:00:06;;;;;;;11.77;5.63;;;7.70;74.60;;;;;;4913537;28;20490;-85
2021/04/04 11:02:32;;;;;;;9.63;5.10;;;7.70;74.60;;;;;;4913982;28;20028;-85
2021/04/04 11:04:58;;;;;;;15.63;6.18;;;7.70;74.90;;;;;;4914077;29;20024;-85
2021/04/04 11:07:24;;;;;;;14.07;5.80;;;7.80;75.10;;;;;;4913202;29;20024;-85
2021/04/04 11:09:50;;;;;;;14.55;6.15;;;7.80;74.50;;;;;;4920201;28;20035;-85
2021/04/04 11:12:16;;;;;;;11.60;6.38;;;7.80;74.10;;;;;;4977894;28;20032;-85
2021/04/04 11:14:50;;;;;;;11.73;5.38;;;7.80;74.20;;;;;;4913754;29;20040;-85
2021/04/04 11:17:21;;;;;;;12.45;5.07;;;7.80;74.40;;;;;;4895443;29;20024;-85
2021/04/04 11:19:49;;;;;;;12.05;6.43;;;8.00;74.10;;;;;;4906056;29;20028;-85
2021/04/04 11:22:19;;;;;;;16.33;5.57;;;8.00;73.10;;;;;;4914956;29;20024;-85
2021/04/04 11:24:59;;;;;;;9.95;5.38;;;8.00;73.00;;;;;;4912559;29;20044;-85
2021/04/04 11:27:40;;;;;;;13.48;6.57;;;8.00;73.00;;;;;;4913163;29;20040;-85
2021/04/04 11:30:15;;;;;;;12.18;7.18;;;8.20;73.20;;;;;;4913651;29;20032;-85
2021/04/04 11:32:45;;;;;;;12.95;6.80;;;8.30;73.00;;;;;;4913724;29;20024;-85
2021/04/04 11:35:12;;;;;;;14.90;6.82;;;8.30;72.20;;;;;;4913791;29;20040;-87
2021/04/04 11:37:40;;;;;;;12.90;5.95;;;8.20;71.20;;;;;;4905297;28;20034;-86
2021/04/04 11:40:16;;;;;;;17.80;5.85;;;8.00;71.60;;;;;;4913698;29;20055;-86
2021/04/04 11:42:43;;;;;;;11.75;4.63;;;8.00;72.40;;;;;;4912815;29;20032;-86
2021/04/04 11:45:09;;;;;;;15.40;5.68;;;8.00;72.50;;;;;;4894832;29;20024;-85
2021/04/04 11:47:35;;;;;;;12.45;5.28;;;8.10;72.50;;;;;;4894705;29;20392;-86
2021/04/04 11:50:21;;;;;;;12.65;5.85;;;8.30;72.10;;;;;;4894476;29;20035;-85
2021/04/04 11:52:46;;;;;;;10.27;5.15;;;8.30;71.70;;;;;;4894697;29;20036;-86
2021/04/04 11:55:12;;;;;;;13.82;6.20;;;8.30;71.80;;;;;;4894606;28;20575;-86
2021/04/04 11:57:41;;;;;;;9.93;6.00;;;8.40;71.00;;;;;;4903355;28;20044;-86
2021/04/04 12:00:09;;;;;;;12.98;6.32;;;8.40;71.10;;;;;;4913041;28;20063;-86
2021/04/04 12:02:36;;;;;;;13.52;5.82;;;8.40;71.00;;;;;;4903784;28;20025;-86
2021/04/04 12:05:11;;;;;;;12.13;5.85;;;8.50;71.00;;;;;;4902534;28;20071;-86
2021/04/04 12:07:51;;;;;;;13.38;5.90;;;8.50;70.80;;;;;;4913907;29;20035;-86
2021/04/04 12:10:19;;;;;;;14.75;6.40;;;8.60;70.80;;;;;;4914874;29;20384;-85
2021/04/04 12:12:45;;;;;;;13.38;5.28;;;8.70;70.90;;;;;;4917795;29;20036;-86
2021/04/04 12:15:12;;;;;;;13.38;4.10;;;8.90;70.80;;;;;;4916256;29;20392;-86
2021/04/04 12:17:38;;;;;;;12.60;4.35;;;8.90;68.80;;;;;;4916969;29;20039;-86
2021/04/04 12:20:06;;;;;;;8.20;3.92;;;8.80;69.40;;;;;;4916655;29;20032;-85
2021/04/04 12:22:50;;;;;;;10.75;5.75;;;8.80;69.10;;;;;;4911677;29;20028;-85
2021/04/04 12:25:24;;;;;;;9.75;4.97;;;8.70;69.00;;;;;;4897439;28;20028;-86
2021/04/04 12:27:52;;;;;;;11.35;3.75;;;8.60;69.20;;;;;;4910651;28;20028;-84
2021/04/04 12:30:37;;;;;;;10.02;4.07;;;8.60;69.40;;;;;;4906272;28;20396;-84
2021/04/04 12:33:05;;;;;;;9.57;4.38;;;8.70;69.20;;;;;;4916421;29;20024;-84
2021/04/04 12:35:32;;;;;;;8.13;3.45;;;8.70;69.00;;;;;;4917453;29;20043;-84
2021/04/04 12:37:57;;;;;;;10.90;4.47;;;8.70;68.90;;;;;;4917239;29;20032;-84
2021/04/04 12:40:23;;;;;;;13.45;5.90;;;8.70;69.40;;;;;;4916085;29;20031;-84
2021/04/04 12:42:58;;;;;;;10.77;4.97;;;8.60;69.20;;;;;;4917366;29;20016;-84
2021/04/04 12:45:24;;;;;;;14.30;5.22;;;8.70;69.10;;;;;;4915530;28;20058;-84
2021/04/04 12:47:50;;;;;;;15.07;5.53;;;8.80;68.90;;;;;;4915974;28;20387;-84
2021/04/04 12:50:18;;;;;;;12.40;4.97;;;8.80;69.00;;;;;;4915219;29;20115;-84
2021/04/04 12:52:46;;;;;;;8.02;4.07;;;8.80;69.00;;;;;;4916586;29;20025;-84
2021/04/04 12:55:19;;;;;;;10.55;4.60;;;8.90;69.10;;;;;;4914787;29;20387;-84
2021/04/04 12:57:46;;;;;;;12.73;5.05;;;9.00;68.70;;;;;;4915587;29;20503;-85
2021/04/04 13:00:18;;;;;;;10.77;4.82;;;9.00;68.70;;;;;;4916724;28;20055;-85
2021/04/04 13:03:12;;;;;;;12.55;6.07;;;9.20;68.50;;;;;;4916288;29;20039;-84
2021/04/04 13:05:47;;;;;;;13.75;5.22;;;9.20;67.40;;;;;;4916859;29;20031;-84
2021/04/04 13:08:32;;;;;;;12.43;6.07;;;9.10;67.80;;;;;;4916756;28;20021;-83
2021/04/04 13:11:04;;;;;;;11.68;5.80;;;9.20;67.80;;;;;;4916925;29;20035;-84
2021/04/04 13:13:35;;;;;;;11.20;6.47;;;9.30;68.00;;;;;;4915776;29;20123;-84
2021/04/04 13:16:06;;;;;;;15.00;6.53;;;9.40;68.10;;;;;;4916316;29;20443;-85